createdAt,value
2023-01-13T00:00:29.774Z,21.00
2023-01-13T00:02:56.243Z,20.84
2023-01-13T00:05:22.655Z,20.89
2023-01-13T00:07:49.086Z,20.95
2023-01-13T00:10:15.497Z,20.94
2023-01-13T00:12:41.930Z,20.98
2023-01-13T00:15:08.360Z,21.06
2023-01-13T00:17:34.778Z,20.96
2023-01-13T00:20:01.196Z,20.93
2023-01-13T00:22:27.677Z,20.99
2023-01-13T00:24:54.102Z,20.96
2023-01-13T00:27:20.524Z,20.90
2023-01-13T00:29:46.965Z,20.93
2023-01-13T00:32:13.399Z,21.04
2023-01-13T00:34:39.809Z,21.05
2023-01-13T00:37:06.228Z,20.95
2023-01-13T00:39:32.652Z,20.88
2023-01-13T00:41:59.068Z,20.93
2023-01-13T00:44:25.487Z,20.86
2023-01-13T00:46:52.057Z,20.95
2023-01-13T00:49:18.490Z,21.01
2023-01-13T00:51:44.910Z,20.89
2023-01-13T00:54:11.341Z,20.92
2023-01-13T00:56:40.786Z,20.97
2023-01-13T00:59:07.770Z,20.91
2023-01-13T01:01:34.292Z,20.95
2023-01-13T01:04:00.782Z,20.86
2023-01-13T01:06:27.200Z,20.89
2023-01-13T01:08:53.630Z,20.91
2023-01-13T01:11:20.048Z,20.96
2023-01-13T01:13:46.466Z,20.97
2023-01-13T01:16:12.932Z,20.98
2023-01-13T01:18:39.471Z,20.98
2023-01-13T01:21:05.880Z,20.93
2023-01-13T01:23:32.309Z,20.86
2023-01-13T01:25:58.730Z,20.77
2023-01-13T01:28:25.145Z,20.89
2023-01-13T01:30:51.558Z,21.00
2023-01-13T01:33:17.984Z,20.96
2023-01-13T01:35:44.428Z,20.95
2023-01-13T01:38:10.836Z,20.98
2023-01-13T01:40:37.246Z,20.92
2023-01-13T01:43:03.680Z,20.97
2023-01-13T01:45:30.093Z,20.94
2023-01-13T01:47:56.513Z,20.94
2023-01-13T01:50:22.934Z,20.96
2023-01-13T01:52:49.373Z,20.93
2023-01-13T01:55:15.803Z,20.96
2023-01-13T01:57:42.243Z,21.00
2023-01-13T02:00:08.717Z,21.00
2023-01-13T02:02:35.138Z,21.02
2023-01-13T02:05:01.587Z,20.97
2023-01-13T02:07:28.045Z,20.99
2023-01-13T02:09:54.469Z,21.01
2023-01-13T02:12:20.885Z,20.96
2023-01-13T02:14:47.341Z,20.98
2023-01-13T02:17:13.787Z,20.87
2023-01-13T02:19:40.202Z,20.97
2023-01-13T02:22:06.625Z,21.06
2023-01-13T02:24:33.069Z,21.00
2023-01-13T02:26:59.671Z,21.00
2023-01-13T02:29:26.152Z,21.09
2023-01-13T02:31:52.695Z,20.99
2023-01-13T02:34:19.149Z,20.97
2023-01-13T02:36:45.592Z,21.05
2023-01-13T02:39:12.035Z,20.95
2023-01-13T02:41:38.456Z,20.90
2023-01-13T02:44:04.878Z,20.90
2023-01-13T02:46:31.287Z,20.98
2023-01-13T02:48:57.727Z,20.95
2023-01-13T02:51:24.146Z,20.96
2023-01-13T02:53:50.540Z,20.91
2023-01-13T02:56:16.977Z,20.99
2023-01-13T02:58:43.387Z,21.01
2023-01-13T03:01:09.820Z,21.00
2023-01-13T03:03:36.246Z,20.95
2023-01-13T03:06:02.590Z,21.04
2023-01-13T03:08:28.966Z,20.97
2023-01-13T03:10:55.339Z,20.96
2023-01-13T03:13:21.695Z,20.93
2023-01-13T03:15:48.048Z,20.96
2023-01-13T03:18:14.401Z,20.96
2023-01-13T03:20:40.754Z,20.97
2023-01-13T03:23:07.141Z,20.95
2023-01-13T03:25:33.525Z,21.05
2023-01-13T03:27:59.899Z,20.98
2023-01-13T03:30:26.386Z,20.88
2023-01-13T03:32:52.736Z,20.96
2023-01-13T03:35:19.073Z,20.94
2023-01-13T03:37:45.446Z,20.87
2023-01-13T03:40:11.905Z,20.91
2023-01-13T03:42:38.298Z,20.98
2023-01-13T03:45:04.662Z,20.94
2023-01-13T03:47:31.062Z,20.96
2023-01-13T03:49:57.428Z,20.96
2023-01-13T03:52:23.777Z,20.98
2023-01-13T03:54:50.147Z,20.98
2023-01-13T03:57:16.532Z,20.94
2023-01-13T03:59:42.910Z,20.94
2023-01-13T04:02:09.432Z,20.96
2023-01-13T04:04:35.843Z,20.93
2023-01-13T04:07:02.217Z,20.95
2023-01-13T04:09:28.599Z,20.89
2023-01-13T04:11:54.961Z,20.93
2023-01-13T04:14:21.322Z,20.98
2023-01-13T04:16:47.696Z,21.03
2023-01-13T04:19:14.080Z,20.98
2023-01-13T04:21:40.445Z,21.04
2023-01-13T04:24:06.844Z,21.01
2023-01-13T04:26:33.219Z,21.05
2023-01-13T04:28:59.596Z,20.98
2023-01-13T04:31:25.969Z,20.99
2023-01-13T04:33:52.362Z,20.93
2023-01-13T04:36:18.745Z,20.96
2023-01-13T04:38:45.095Z,20.98
2023-01-13T04:41:11.462Z,20.95
2023-01-13T04:43:37.873Z,20.98
2023-01-13T04:46:04.350Z,21.04
2023-01-13T04:48:30.787Z,20.97
2023-01-13T04:50:57.184Z,21.05
2023-01-13T04:53:23.553Z,20.95
2023-01-13T04:55:49.924Z,20.99
2023-01-13T04:58:16.294Z,20.94
2023-01-13T05:00:42.686Z,20.94
2023-01-13T05:03:09.031Z,20.97
2023-01-13T05:05:35.499Z,20.89
2023-01-13T05:08:01.871Z,20.89
2023-01-13T05:10:28.241Z,20.87
2023-01-13T05:12:54.600Z,20.97
2023-01-13T05:15:20.954Z,20.99
2023-01-13T05:17:47.318Z,20.96
2023-01-13T05:20:13.700Z,20.94
2023-01-13T05:22:40.059Z,20.94
2023-01-13T05:25:06.449Z,20.92
2023-01-13T05:27:32.820Z,20.94
2023-01-13T05:29:59.288Z,20.98
2023-01-13T05:32:25.627Z,21.06
2023-01-13T05:34:52.026Z,20.98
2023-01-13T05:37:18.391Z,20.99
2023-01-13T05:39:44.861Z,20.92
2023-01-13T05:42:11.217Z,21.00
2023-01-13T05:44:37.564Z,20.99
2023-01-13T05:47:03.919Z,20.90
2023-01-13T05:49:30.278Z,20.89
2023-01-13T05:51:56.678Z,20.96
2023-01-13T05:54:23.033Z,20.89
2023-01-13T05:56:49.423Z,20.89
2023-01-13T05:59:15.798Z,20.90
2023-01-13T06:01:42.165Z,20.87
2023-01-13T06:04:08.551Z,20.85
2023-01-13T06:06:34.909Z,20.91
2023-01-13T06:09:01.304Z,20.92
2023-01-13T06:11:27.653Z,20.91
2023-01-13T06:13:53.997Z,20.90
2023-01-13T06:16:20.411Z,20.93
2023-01-13T06:18:46.770Z,20.88
2023-01-13T06:21:13.132Z,20.87
2023-01-13T06:23:39.503Z,20.85
2023-01-13T06:26:05.876Z,20.93
2023-01-13T06:28:32.249Z,20.98
2023-01-13T06:30:58.642Z,20.85
2023-01-13T06:33:25.027Z,20.90
2023-01-13T06:35:51.418Z,20.86
2023-01-13T06:38:17.786Z,20.81
2023-01-13T06:40:44.151Z,20.85
2023-01-13T06:43:10.495Z,20.89
2023-01-13T06:45:36.880Z,20.90
2023-01-13T06:48:03.247Z,20.82
2023-01-13T06:50:29.619Z,20.85
2023-01-13T06:52:56.006Z,20.88
2023-01-13T06:55:22.355Z,20.91
2023-01-13T06:57:48.718Z,20.80
2023-01-13T07:00:15.076Z,20.84
2023-01-13T07:02:41.569Z,20.90
2023-01-13T07:05:07.953Z,20.82
2023-01-13T07:07:34.309Z,20.91
2023-01-13T07:10:00.676Z,20.87
2023-01-13T07:12:27.024Z,20.85
2023-01-13T07:14:53.410Z,20.80
2023-01-13T07:17:19.775Z,20.84
2023-01-13T07:19:46.149Z,20.78
2023-01-13T07:22:12.498Z,20.78
2023-01-13T07:24:38.849Z,20.77
2023-01-13T07:27:05.212Z,20.88
2023-01-13T07:29:31.584Z,20.88
2023-01-13T07:31:58.077Z,20.92
2023-01-13T07:34:24.460Z,20.81
2023-01-13T07:36:50.837Z,20.91
2023-01-13T07:39:17.208Z,20.82
2023-01-13T07:41:43.560Z,20.82
2023-01-13T07:44:09.907Z,20.88
2023-01-13T07:46:36.286Z,20.81
2023-01-13T07:49:02.659Z,20.83
2023-01-13T07:51:29.028Z,20.78
2023-01-13T07:53:55.379Z,20.81
2023-01-13T07:56:21.763Z,20.88
2023-01-13T07:58:48.118Z,20.84
2023-01-13T08:01:14.592Z,20.90
2023-01-13T08:03:41.138Z,20.86
2023-01-13T08:06:07.565Z,20.84
2023-01-13T08:08:33.959Z,20.81
2023-01-13T08:11:00.345Z,20.87
2023-01-13T08:13:26.707Z,20.88
2023-01-13T08:15:53.101Z,20.87
2023-01-13T08:18:19.464Z,20.86
2023-01-13T08:20:45.820Z,21.03
2023-01-13T08:23:12.215Z,21.02
2023-01-13T08:25:38.607Z,20.93
2023-01-13T08:28:04.975Z,21.04
2023-01-13T08:30:31.379Z,21.13
2023-01-13T08:32:57.755Z,21.05
2023-01-13T08:35:24.137Z,21.04
2023-01-13T08:37:50.509Z,21.14
2023-01-13T08:40:16.937Z,21.01
2023-01-13T08:42:43.306Z,21.09
2023-01-13T08:45:09.666Z,21.13
2023-01-13T08:47:36.027Z,21.10
2023-01-13T08:50:02.520Z,20.99
2023-01-13T08:52:28.923Z,21.17
2023-01-13T08:54:55.293Z,21.27
2023-01-13T08:57:21.744Z,21.31
2023-01-13T08:59:48.127Z,21.26
2023-01-13T09:02:14.593Z,21.08
2023-01-13T09:04:41.023Z,21.22
2023-01-13T09:07:07.409Z,21.24
2023-01-13T09:09:33.910Z,21.30
2023-01-13T09:12:00.292Z,21.38
2023-01-13T09:14:26.655Z,21.33
2023-01-13T09:16:53.015Z,21.28
2023-01-13T09:19:19.404Z,21.38
2023-01-13T09:21:45.793Z,21.32
2023-01-13T09:24:12.208Z,21.38
2023-01-13T09:26:38.584Z,21.40
2023-01-13T09:29:04.958Z,21.23
2023-01-13T09:31:31.365Z,21.26
2023-01-13T09:33:57.776Z,21.22
2023-01-13T09:36:24.142Z,21.38
2023-01-13T09:38:50.519Z,21.31
2023-01-13T09:41:16.885Z,21.46
2023-01-13T09:43:43.269Z,21.46
2023-01-13T09:46:09.640Z,21.42
2023-01-13T09:48:36.088Z,21.36
2023-01-13T09:51:02.488Z,21.36
2023-01-13T09:53:28.875Z,21.42
2023-01-13T09:55:55.247Z,21.31
2023-01-13T09:58:21.670Z,21.31
2023-01-13T10:00:48.107Z,21.30
2023-01-13T10:03:14.529Z,21.33
2023-01-13T10:05:40.897Z,21.35
2023-01-13T10:08:07.266Z,21.32
2023-01-13T10:10:33.620Z,21.22
2023-01-13T10:13:00.104Z,21.16
2023-01-13T10:15:26.642Z,21.12
2023-01-13T10:17:53.023Z,21.24
2023-01-13T10:20:19.377Z,21.24
2023-01-13T10:22:45.739Z,21.37
2023-01-13T10:25:12.133Z,21.32
2023-01-13T10:27:38.488Z,21.49
2023-01-13T10:30:04.894Z,21.45
2023-01-13T10:32:31.283Z,21.49
2023-01-13T10:34:57.654Z,21.57
2023-01-13T10:37:24.037Z,21.46
2023-01-13T10:39:50.407Z,21.52
2023-01-13T10:42:16.788Z,21.58
2023-01-13T10:44:43.164Z,21.47
2023-01-13T10:47:09.535Z,21.39
2023-01-13T10:49:35.910Z,21.57
2023-01-13T10:52:02.374Z,21.55
2023-01-13T10:54:28.787Z,21.52
2023-01-13T10:56:55.153Z,21.33
2023-01-13T10:59:21.524Z,21.25
2023-01-13T11:01:48.079Z,21.33
2023-01-13T11:04:14.446Z,21.38
2023-01-13T11:06:40.820Z,21.36
2023-01-13T11:09:07.215Z,21.34
2023-01-13T11:11:33.568Z,21.19
2023-01-13T11:13:59.934Z,21.22
2023-01-13T11:16:26.336Z,21.21
2023-01-13T11:18:52.719Z,21.26
2023-01-13T11:21:19.128Z,21.13
2023-01-13T11:23:45.497Z,21.21
2023-01-13T11:26:11.864Z,21.27
2023-01-13T11:28:38.238Z,21.14
2023-01-13T11:31:04.680Z,21.16
2023-01-13T11:33:31.103Z,21.18
2023-01-13T11:35:57.496Z,21.17
2023-01-13T11:38:23.877Z,21.22
2023-01-13T11:40:50.250Z,21.13
2023-01-13T11:43:16.606Z,21.28
2023-01-13T11:45:42.964Z,21.17
2023-01-13T11:48:09.393Z,21.25
2023-01-13T11:50:35.739Z,21.24
2023-01-13T11:53:02.106Z,21.19
2023-01-13T11:55:28.477Z,21.27
2023-01-13T11:57:54.837Z,21.26
2023-01-13T12:00:21.219Z,21.21
2023-01-13T12:02:47.660Z,21.28
2023-01-13T12:05:14.095Z,21.25
2023-01-13T12:07:40.461Z,21.31
2023-01-13T12:10:11.624Z,21.41
2023-01-13T12:12:39.540Z,21.28
2023-01-13T12:15:05.916Z,21.29
2023-01-13T12:17:32.385Z,21.23
2023-01-13T12:19:58.748Z,21.13
2023-01-13T12:22:25.115Z,21.24
2023-01-13T12:24:51.593Z,21.14
2023-01-13T12:27:18.129Z,21.28
2023-01-13T12:29:44.526Z,21.40
2023-01-13T12:32:10.901Z,21.32
2023-01-13T12:34:37.418Z,21.36
2023-01-13T12:37:03.959Z,21.32
2023-01-13T12:39:30.326Z,21.42
2023-01-13T12:41:56.803Z,21.39
2023-01-13T12:44:23.214Z,21.27
2023-01-13T12:46:49.573Z,21.34
2023-01-13T12:49:15.960Z,21.29
2023-01-13T12:51:42.314Z,21.23
2023-01-13T12:54:08.687Z,21.16
2023-01-13T12:56:36.484Z,21.32
2023-01-13T12:59:03.096Z,21.38
2023-01-13T13:01:29.523Z,21.43
2023-01-13T13:03:55.895Z,21.38
2023-01-13T13:06:22.269Z,21.32
2023-01-13T13:08:48.641Z,21.24
2023-01-13T13:11:15.074Z,21.28
2023-01-13T13:13:41.460Z,21.33
2023-01-13T13:16:07.827Z,21.25
2023-01-13T13:18:34.185Z,21.20
2023-01-13T13:21:03.645Z,21.15
2023-01-13T13:23:30.550Z,21.22
2023-01-13T13:25:56.916Z,21.21
2023-01-13T13:28:23.306Z,21.17
2023-01-13T13:30:49.709Z,21.29
2023-01-13T13:33:16.103Z,21.27
2023-01-13T13:35:42.484Z,21.20
2023-01-13T13:38:08.868Z,21.19
2023-01-13T13:40:35.223Z,21.16
2023-01-13T13:43:01.587Z,21.19
2023-01-13T13:45:27.975Z,21.26
2023-01-13T13:47:54.347Z,21.19
2023-01-13T13:50:20.710Z,21.26
2023-01-13T13:52:47.345Z,21.17
2023-01-13T13:55:13.697Z,21.13
2023-01-13T13:57:40.248Z,21.17
2023-01-13T14:00:06.694Z,21.14
2023-01-13T14:02:33.071Z,21.24
2023-01-13T14:04:59.592Z,21.15
2023-01-13T14:07:25.976Z,21.18
2023-01-13T14:09:52.299Z,21.24
2023-01-13T14:12:18.692Z,21.15
2023-01-13T14:14:45.057Z,21.02
2023-01-13T14:17:11.434Z,21.08
2023-01-13T14:19:37.784Z,21.06
2023-01-13T14:22:04.170Z,21.12
2023-01-13T14:24:30.549Z,21.06
2023-01-13T14:26:56.927Z,21.05
2023-01-13T14:29:23.277Z,21.06
2023-01-13T14:31:49.642Z,21.07
2023-01-13T14:34:31.123Z,21.09
2023-01-13T14:36:58.022Z,21.08
2023-01-13T14:39:24.381Z,20.99
2023-01-13T14:41:50.762Z,20.97
2023-01-13T14:44:17.142Z,21.03
2023-01-13T14:46:43.512Z,21.07
2023-01-13T14:49:09.888Z,21.04
2023-01-13T14:51:36.367Z,20.92
2023-01-13T14:54:02.756Z,21.01
2023-01-13T14:56:31.107Z,21.05
2023-01-13T14:58:57.552Z,21.00
2023-01-13T15:01:24.041Z,21.01
2023-01-13T15:03:50.470Z,21.10
2023-01-13T15:06:16.846Z,21.01
2023-01-13T15:08:43.215Z,21.06
2023-01-13T15:11:09.576Z,21.04
2023-01-13T15:13:36.030Z,21.00
2023-01-13T15:16:02.565Z,21.07
2023-01-13T15:18:28.953Z,21.03
2023-01-13T15:20:55.327Z,20.97
2023-01-13T15:23:21.694Z,20.94
2023-01-13T15:25:48.063Z,20.99
2023-01-13T15:28:14.447Z,21.03
2023-01-13T15:30:40.813Z,20.90
2023-01-13T15:33:07.167Z,20.93
2023-01-13T15:35:33.537Z,20.92
2023-01-13T15:37:59.938Z,20.92
2023-01-13T15:40:26.308Z,20.89
2023-01-13T15:42:52.668Z,20.92
2023-01-13T15:45:19.020Z,20.97
2023-01-13T15:47:45.413Z,20.92
2023-01-13T15:50:11.776Z,20.92
2023-01-13T15:52:38.161Z,20.95
2023-01-13T15:55:04.538Z,20.96
2023-01-13T15:57:30.916Z,20.98
2023-01-13T15:59:57.279Z,20.93
2023-01-13T16:02:23.666Z,20.96
2023-01-13T16:04:50.032Z,20.89
2023-01-13T16:07:16.398Z,20.93
2023-01-13T16:09:42.750Z,20.94
2023-01-13T16:12:09.155Z,20.95
2023-01-13T16:14:35.517Z,20.89
2023-01-13T16:17:01.896Z,20.94
2023-01-13T16:19:28.279Z,20.87
2023-01-13T16:21:54.644Z,20.85
2023-01-13T16:24:21.041Z,20.88
2023-01-13T16:26:47.436Z,20.86
2023-01-13T16:29:13.835Z,20.88
2023-01-13T16:31:40.356Z,20.91
2023-01-13T16:34:06.803Z,20.86
2023-01-13T16:36:33.186Z,20.86
2023-01-13T16:38:59.585Z,20.84
2023-01-13T16:41:25.990Z,20.87
2023-01-13T16:43:52.355Z,20.91
2023-01-13T16:46:18.753Z,20.91
2023-01-13T16:48:45.147Z,20.84
2023-01-13T16:51:11.528Z,20.85
2023-01-13T16:53:37.885Z,20.90
2023-01-13T16:56:04.282Z,20.84
2023-01-13T16:58:30.641Z,20.89
2023-01-13T17:00:57.056Z,20.96
2023-01-13T17:03:23.506Z,20.90
2023-01-13T17:05:49.886Z,20.95
2023-01-13T17:08:16.240Z,20.87
2023-01-13T17:10:42.616Z,20.84
2023-01-13T17:13:15.875Z,20.92
2023-01-13T17:15:43.001Z,20.88
2023-01-13T17:18:09.342Z,20.84
2023-01-13T17:20:35.719Z,20.87
2023-01-13T17:23:02.085Z,20.84
2023-01-13T17:25:28.442Z,20.77
2023-01-13T17:27:54.794Z,20.86
2023-01-13T17:30:21.161Z,20.90
2023-01-13T17:32:47.554Z,20.90
2023-01-13T17:35:13.988Z,20.84
2023-01-13T17:37:40.344Z,20.85
2023-01-13T17:40:06.731Z,20.81
2023-01-13T17:42:33.073Z,20.89
2023-01-13T17:44:59.440Z,20.83
2023-01-13T17:47:25.805Z,20.83
2023-01-13T17:49:52.187Z,20.78
2023-01-13T17:52:18.554Z,20.77
2023-01-13T17:54:44.939Z,20.79
2023-01-13T17:57:11.277Z,20.86
2023-01-13T17:59:37.640Z,20.86
2023-01-13T18:02:04.177Z,20.88
2023-01-13T18:04:30.667Z,20.94
2023-01-13T18:06:57.017Z,20.95
2023-01-13T18:09:23.413Z,20.91
2023-01-13T18:11:49.820Z,20.91
2023-01-13T18:14:16.183Z,20.87
2023-01-13T18:16:42.551Z,20.93
2023-01-13T18:19:08.928Z,20.92
2023-01-13T18:21:35.306Z,20.95
2023-01-13T18:24:01.663Z,20.95
2023-01-13T18:26:28.015Z,20.83
2023-01-13T18:28:54.391Z,20.82
2023-01-13T18:31:20.765Z,20.78
2023-01-13T18:33:47.129Z,20.82
2023-01-13T18:36:13.507Z,20.84
2023-01-13T18:38:39.862Z,20.85
2023-01-13T18:41:06.242Z,20.83
2023-01-13T18:43:32.602Z,20.85
2023-01-13T18:45:58.996Z,20.88
2023-01-13T18:48:25.359Z,20.84
2023-01-13T18:50:51.719Z,20.82
2023-01-13T18:53:18.097Z,20.79
2023-01-13T18:55:44.468Z,20.80
2023-01-13T18:58:10.820Z,20.79
2023-01-13T19:00:37.204Z,20.83
2023-01-13T19:05:32.265Z,20.84
2023-01-13T19:07:58.646Z,20.85
2023-01-13T19:10:25.008Z,20.80
2023-01-13T19:12:51.383Z,20.85
2023-01-13T19:15:17.759Z,20.87
2023-01-13T19:17:44.159Z,20.83
2023-01-13T19:20:10.549Z,20.89
2023-01-13T19:22:36.902Z,20.93
2023-01-13T19:25:03.271Z,20.85
2023-01-13T19:27:29.690Z,20.84
2023-01-13T19:29:56.080Z,20.83
2023-01-13T19:32:22.560Z,20.82
2023-01-13T19:34:48.979Z,20.91
2023-01-13T19:37:15.369Z,20.79
2023-01-13T19:39:41.731Z,20.79
2023-01-13T19:42:08.199Z,20.85
2023-01-13T19:44:34.586Z,20.85
2023-01-13T19:47:00.944Z,20.81
2023-01-13T19:49:27.302Z,20.82
2023-01-13T19:51:53.677Z,20.83
2023-01-13T19:54:20.024Z,20.81
2023-01-13T19:56:46.402Z,20.85
2023-01-13T19:59:12.770Z,20.85
2023-01-13T20:01:39.289Z,20.82
2023-01-13T20:04:05.686Z,20.82
2023-01-13T20:06:32.059Z,20.86
2023-01-13T20:08:58.412Z,20.86
2023-01-13T20:11:24.786Z,20.81
2023-01-13T20:13:51.149Z,20.83
2023-01-13T20:16:17.546Z,20.88
2023-01-13T20:18:43.946Z,20.81
2023-01-13T20:21:10.342Z,20.81
2023-01-13T20:23:36.777Z,20.81
2023-01-13T20:26:03.253Z,20.80
2023-01-13T20:28:29.615Z,20.79
2023-01-13T20:30:55.987Z,20.81
2023-01-13T20:33:22.346Z,20.79
2023-01-13T20:35:48.727Z,20.78
2023-01-13T20:38:15.083Z,20.80
2023-01-13T20:40:41.450Z,20.82
2023-01-13T20:43:07.824Z,20.82
2023-01-13T20:45:34.172Z,20.76
2023-01-13T20:48:00.524Z,20.85
2023-01-13T20:50:26.927Z,20.83
2023-01-13T20:52:53.297Z,20.81
2023-01-13T20:55:19.644Z,20.90
2023-01-13T20:57:46.055Z,20.93
2023-01-13T21:00:12.416Z,20.89
2023-01-13T21:02:38.797Z,20.82
2023-01-13T21:05:05.166Z,20.84
2023-01-13T21:07:31.564Z,20.79
2023-01-13T21:09:58.085Z,20.79
2023-01-13T21:12:24.469Z,20.81
2023-01-13T21:14:50.839Z,20.84
2023-01-13T21:17:17.232Z,20.87
2023-01-13T21:19:43.573Z,20.91
2023-01-13T21:22:09.936Z,20.86
2023-01-13T21:24:36.265Z,20.80
2023-01-13T21:27:02.669Z,20.79
2023-01-13T21:29:29.030Z,20.85
2023-01-13T21:31:55.437Z,20.79
2023-01-13T21:34:21.855Z,20.77
2023-01-13T21:36:48.189Z,20.80
2023-01-13T21:39:14.549Z,20.83
2023-01-13T21:41:40.929Z,20.84
2023-01-13T21:44:07.419Z,20.88
2023-01-13T21:46:33.803Z,20.84
2023-01-13T21:49:00.153Z,20.86
2023-01-13T21:51:26.537Z,20.81
2023-01-13T21:53:52.947Z,20.79
2023-01-13T21:56:19.310Z,20.84
2023-01-13T21:58:45.720Z,20.82
2023-01-13T22:01:12.258Z,20.88
2023-01-13T22:03:38.771Z,20.85
2023-01-13T22:06:05.588Z,20.88
2023-01-13T22:08:31.972Z,20.89
2023-01-13T22:10:58.637Z,20.86
2023-01-13T22:13:25.109Z,20.85
2023-01-13T22:15:51.578Z,20.84
2023-01-13T22:18:17.956Z,20.84
2023-01-13T22:20:44.327Z,20.83
2023-01-13T22:23:10.704Z,20.83
2023-01-13T22:25:37.108Z,20.92
2023-01-13T22:28:04.596Z,20.81
2023-01-13T22:30:30.967Z,20.80
2023-01-13T22:32:57.366Z,20.85
2023-01-13T22:35:23.773Z,20.84
2023-01-13T22:37:50.149Z,20.91
2023-01-13T22:40:16.534Z,20.87
2023-01-13T22:42:42.935Z,20.85
2023-01-13T22:45:09.299Z,20.88
2023-01-13T22:47:35.674Z,20.80
2023-01-13T22:50:02.037Z,20.86
2023-01-13T22:52:28.394Z,20.95
2023-01-13T22:54:54.767Z,20.90
2023-01-13T22:57:21.878Z,20.89
2023-01-13T22:59:50.078Z,20.81
2023-01-13T23:02:16.450Z,20.95
2023-01-13T23:04:42.834Z,20.90
2023-01-13T23:07:09.212Z,20.84
2023-01-13T23:09:35.584Z,20.88
2023-01-13T23:12:01.928Z,20.86
2023-01-13T23:14:28.334Z,20.84
2023-01-13T23:16:54.771Z,20.88
2023-01-13T23:19:21.536Z,20.80
2023-01-13T23:21:47.891Z,20.85
2023-01-13T23:24:14.275Z,20.85
2023-01-13T23:26:40.661Z,20.91
2023-01-13T23:29:07.032Z,20.89
2023-01-13T23:31:33.399Z,20.92
2023-01-13T23:33:59.783Z,20.88
2023-01-13T23:36:26.143Z,20.88
2023-01-13T23:38:52.537Z,20.90
2023-01-13T23:41:18.924Z,20.88
2023-01-13T23:43:45.303Z,20.84
2023-01-13T23:46:11.740Z,20.80
2023-01-13T23:48:38.135Z,20.90
2023-01-13T23:51:04.491Z,20.85
2023-01-13T23:53:30.873Z,20.88
2023-01-13T23:55:57.282Z,20.80
2023-01-13T23:58:23.631Z,20.82
